Dumont, Iowa
Current Conditions -  °F | °C
As of 12:15 PM on Tuesday 21 Oct 2014 (Local Time) from KIFA Reporting Station
Clear Clear  
Wind Chill: 58°   Ceiling: Unl
Heat Index: 58°   Visibility: 10mi
Dew Point: 42°   Wind: 10mph
Humidity: 56%   Direction: 100°E
Pressure: 30.18"   Gusts: NA
Location:  42.75°N, 92.98°W
Report Text: KIFA 211715Z AUTO 10009KT 090V150 10SM CLR 15/06 A3018 RMK AO2 T01450057
Loading
Personal Weather Stations






























Interactive Weather Map
Tropical Storm Tracking
New forecast layout! Learn more

10-Day Weather Forecast

Advertisements
Track Severe Weather on mobile